Terminal Aerodrome Forecast
Issued by NWS Detroit/Pontiac, MI

Home | Current Version | Previous Version | Text Only | Print | Product List | Glossary On
Versions: 1 2 3 4 5 6 7 8 9 10 11 12 13 14 15 16 17 18 19 20 21
927
FTUS43 KDTX 191750
TAFFNT
TAF
KFNT 191750Z 1918/2018 24006KT P6SM SCT008
      TEMPO 1918/1921 6SM HZ BKN008
     FM200000 12004KT P6SM SCT008 OVC120
     FM200400 07004KT P6SM OVC008
     FM201400 04006KT 2SM -RA BR BKN005 OVC012=

USA.gov is the U.S. government's official web portal to all federal, state and local government web resources and services.